Time;durP1;ratioP1;P1;durP2;ratioP2;P2;SDS_P1;SDS_P2;PMS_P1;PMS_P2;Temp;Humidity;BMP_temperature;BMP_pressure;BME280_temperature;BME280_humidity;BME280_pressure;Samples;Min_cycle;Max_cycle;Signal;HPM_P1;HPM_P2
2023/01/21 00:00:09;;;;;;;5.70;4.03;;;;;;;-9.78;100.00;93054.78;2533850;23;19998;-83
2023/01/21 00:01:11;;;;;;;4.20;3.38;;;;;;;-10.03;100.00;93053.47;2534389;23;20029;-84
2023/01/21 00:02:12;;;;;;;5.45;3.33;;;;;;;-10.04;100.00;93044.19;2546739;23;20475;-84
2023/01/21 00:03:13;;;;;;;6.40;3.45;;;;;;;-10.18;100.00;93051.97;2546313;23;20405;-85
2023/01/21 00:04:20;;;;;;;4.75;3.90;;;;;;;-10.35;100.00;93051.81;2546359;23;20426;-84
2023/01/21 00:05:21;;;;;;;5.00;3.45;;;;;;;-10.27;100.00;93051.16;2548667;23;20416;-84
2023/01/21 00:06:22;;;;;;;5.72;4.00;;;;;;;-10.31;100.00;93049.41;2546312;23;20805;-84
2023/01/21 00:07:24;;;;;;;5.95;3.80;;;;;;;-10.37;100.00;93051.31;2546387;23;20001;-83
2023/01/21 00:08:26;;;;;;;6.28;3.97;;;;;;;-10.42;100.00;93046.25;2546694;23;20002;-84
2023/01/21 00:09:26;;;;;;;7.85;4.20;;;;;;;-10.51;100.00;93050.56;2534331;23;20406;-83
2023/01/21 00:10:27;;;;;;;8.20;4.75;;;;;;;-10.59;100.00;93044.22;2533993;23;20430;-84
2023/01/21 00:11:29;;;;;;;5.32;3.88;;;;;;;-10.53;100.00;93052.66;2546122;23;20332;-84
2023/01/21 00:12:30;;;;;;;11.25;6.13;;;;;;;-10.58;100.00;93052.75;2558594;23;20027;-83
2023/01/21 00:13:32;;;;;;;10.32;6.13;;;;;;;-10.57;100.00;93049.88;2559221;23;20423;-84
2023/01/21 00:14:33;;;;;;;11.13;7.03;;;;;;;-10.48;100.00;93052.56;2547555;23;20032;-84
2023/01/21 00:15:35;;;;;;;12.45;6.90;;;;;;;-10.44;100.00;93048.38;2547131;23;20728;-85
2023/01/21 00:16:36;;;;;;;22.90;9.50;;;;;;;-10.43;100.00;93048.06;2559595;23;20009;-84
2023/01/21 00:17:37;;;;;;;24.67;10.07;;;;;;;-10.47;100.00;93054.09;2558972;23;20400;-85
2023/01/21 00:18:38;;;;;;;29.95;12.23;;;;;;;-10.47;100.00;93057.44;2534399;23;20033;-85
2023/01/21 00:19:39;;;;;;;30.15;10.80;;;;;;;-10.54;100.00;93048.53;2546792;23;20009;-85
2023/01/21 00:20:39;;;;;;;18.42;8.23;;;;;;;-10.50;100.00;93058.00;2534496;23;20033;-85
2023/01/21 00:21:40;;;;;;;13.40;6.82;;;;;;;-10.50;100.00;93041.75;2534584;23;20009;-84
2023/01/21 00:22:41;;;;;;;13.82;7.00;;;;;;;-10.54;100.00;93054.47;2559213;23;20440;-83
2023/01/21 00:23:44;;;;;;;13.55;6.78;;;;;;;-10.49;100.00;93053.59;2546947;23;20373;-82
2023/01/21 00:24:55;;;;;;;9.30;5.57;;;;;;;-10.51;100.00;93053.13;2547214;23;20005;-83
2023/01/21 00:26:02;;;;;;;11.98;5.82;;;;;;;-10.52;100.00;93051.63;2538924;23;20402;-83
2023/01/21 00:27:03;;;;;;;8.88;5.43;;;;;;;-10.57;100.00;93055.06;2536802;23;20426;-82
2023/01/21 00:28:04;;;;;;;9.57;5.18;;;;;;;-10.64;100.00;93052.06;2559583;23;21045;-83
2023/01/21 00:29:05;;;;;;;10.40;4.60;;;;;;;-10.59;100.00;93051.97;2558968;23;20345;-83
2023/01/21 00:30:06;;;;;;;7.97;4.65;;;;;;;-10.67;100.00;93050.84;2558683;23;20420;-84
2023/01/21 00:31:07;;;;;;;6.75;4.68;;;;;;;-10.63;100.00;93058.75;2546895;23;20068;-83
2023/01/21 00:32:09;;;;;;;5.22;4.03;;;;;;;-10.70;100.00;93051.41;2546681;23;20959;-82
2023/01/21 00:33:09;;;;;;;6.18;4.20;;;;;;;-10.64;100.00;93057.22;2558564;23;20427;-83
2023/01/21 00:34:11;;;;;;;6.10;4.07;;;;;;;-10.36;100.00;93052.84;2534867;23;20006;-83
2023/01/21 00:35:12;;;;;;;6.40;3.78;;;;;;;-10.45;100.00;93051.97;2547072;23;20352;-83
2023/01/21 00:36:17;;;;;;;5.43;3.83;;;;;;;-10.45;100.00;93051.97;2546550;23;20413;-83
2023/01/21 00:37:18;;;;;;;5.82;3.88;;;;;;;-10.36;100.00;93059.81;2536345;23;20409;-82
2023/01/21 00:38:19;;;;;;;4.85;3.70;;;;;;;-10.42;100.00;93052.19;2546809;23;20404;-82
2023/01/21 00:39:20;;;;;;;5.10;3.38;;;;;;;-10.62;100.00;93051.78;2534809;23;20405;-83
2023/01/21 00:40:21;;;;;;;5.57;3.97;;;;;;;-10.75;100.00;93053.31;2534658;23;20006;-83
2023/01/21 00:41:25;;;;;;;7.35;3.88;;;;;;;-10.77;100.00;93063.91;2534912;23;20409;-82
2023/01/21 00:42:27;;;;;;;5.97;3.88;;;;;;;-10.85;100.00;93056.81;2536081;23;20409;-83
2023/01/21 00:43:29;;;;;;;5.10;3.55;;;;;;;-10.91;100.00;93052.78;2535083;23;20417;-83
2023/01/21 00:44:30;;;;;;;5.65;3.55;;;;;;;-10.87;100.00;93053.75;2547141;23;20405;-82
2023/01/21 00:45:31;;;;;;;5.13;3.80;;;;;;;-10.83;100.00;93054.72;2558570;23;20463;-82
2023/01/21 00:46:32;;;;;;;5.72;3.60;;;;;;;-10.85;100.00;93061.97;2546829;23;20062;-83
2023/01/21 00:47:33;;;;;;;4.95;3.75;;;;;;;-10.88;100.00;93056.63;2534420;23;20069;-82
2023/01/21 00:48:34;;;;;;;5.03;3.35;;;;;;;-10.85;100.00;93056.03;2534771;23;20033;-83
2023/01/21 00:49:35;;;;;;;6.13;3.70;;;;;;;-10.83;100.00;93059.88;2558867;23;20001;-83
2023/01/21 00:50:36;;;;;;;4.32;3.25;;;;;;;-10.89;100.00;93053.25;2534518;23;20429;-83
2023/01/21 00:51:37;;;;;;;5.78;3.40;;;;;;;-10.92;100.00;93056.44;2534713;23;20405;-82
2023/01/21 00:52:38;;;;;;;6.55;3.83;;;;;;;-10.99;100.00;93059.38;2534267;23;20452;-82
2023/01/21 00:53:42;;;;;;;4.40;3.17;;;;;;;-11.00;100.00;93063.00;2546691;23;20002;-82
2023/01/21 00:54:43;;;;;;;5.68;3.70;;;;;;;-10.93;100.00;93065.19;2559747;23;20009;-82
2023/01/21 00:55:44;;;;;;;6.40;4.20;;;;;;;-10.80;100.00;93063.69;2558895;23;20514;-83
2023/01/21 00:56:45;;;;;;;7.53;4.53;;;;;;;-10.75;100.00;93061.81;2534485;23;20413;-82
2023/01/21 00:57:46;;;;;;;6.38;4.03;;;;;;;-10.79;100.00;93067.84;2546820;23;20447;-82
2023/01/21 00:58:47;;;;;;;6.00;4.40;;;;;;;-10.94;100.00;93058.50;2546821;23;20089;-83
2023/01/21 00:59:48;;;;;;;5.10;3.95;;;;;;;-10.86;100.00;93060.44;2546619;23;20048;-83
2023/01/21 01:00:49;;;;;;;8.07;4.32;;;;;;;-10.78;100.00;93061.63;2546494;23;20412;-82
2023/01/21 01:01:50;;;;;;;7.57;4.07;;;;;;;-10.84;100.00;93067.91;2546578;23;20002;-83
2023/01/21 01:02:51;;;;;;;5.55;3.90;;;;;;;-10.87;100.00;93061.50;2559032;23;20013;-82
2023/01/21 01:03:52;;;;;;;6.43;4.22;;;;;;;-10.94;100.00;93059.28;2559469;23;20096;-82
2023/01/21 01:04:53;;;;;;;6.20;4.13;;;;;;;-10.93;100.00;93066.00;2547190;23;20006;-84
2023/01/21 01:05:54;;;;;;;7.45;4.35;;;;;;;-10.99;100.00;93063.75;2534680;23;20418;-82
2023/01/21 01:06:55;;;;;;;6.63;3.90;;;;;;;-10.94;100.00;93067.03;2534452;23;20060;-83
2023/01/21 01:07:56;;;;;;;4.72;3.70;;;;;;;-10.97;100.00;93072.75;2534611;23;20080;-82
2023/01/21 01:08:57;;;;;;;7.38;4.00;;;;;;;-11.04;100.00;93069.00;2534530;23;20408;-82
2023/01/21 01:09:58;;;;;;;6.50;4.10;;;;;;;-11.08;100.00;93073.97;2534514;23;20016;-84
2023/01/21 01:11:00;;;;;;;7.38;4.40;;;;;;;-11.04;100.00;93071.59;2534714;23;20398;-84
2023/01/21 01:12:01;;;;;;;5.75;4.03;;;;;;;-11.02;100.00;93072.81;2534966;23;20026;-82
2023/01/21 01:13:02;;;;;;;8.63;4.57;;;;;;;-11.05;100.00;93076.00;2546586;23;20934;-83
2023/01/21 01:14:03;;;;;;;6.90;4.10;;;;;;;-11.06;100.00;93086.56;2546781;23;20397;-82
2023/01/21 01:15:04;;;;;;;6.00;4.00;;;;;;;-11.06;100.00;93089.94;2546830;23;20001;-82
2023/01/21 01:16:06;;;;;;;8.40;4.80;;;;;;;-11.07;100.00;93082.47;2558674;23;20424;-83
2023/01/21 01:17:07;;;;;;;7.75;4.28;;;;;;;-11.08;100.00;93086.88;2534330;23;20410;-83
2023/01/21 01:18:08;;;;;;;9.80;5.38;;;;;;;-10.99;100.00;93092.91;2534717;23;20474;-82
2023/01/21 01:19:10;;;;;;;10.73;5.68;;;;;;;-10.98;100.00;93086.69;2534447;23;20430;-82
2023/01/21 01:20:11;;;;;;;11.05;6.18;;;;;;;-10.97;100.00;93090.06;2534627;23;20402;-82
2023/01/21 01:21:15;;;;;;;11.55;6.88;;;;;;;-10.89;100.00;93089.41;2534320;23;20417;-82
2023/01/21 01:22:16;;;;;;;15.60;7.85;;;;;;;-10.89;100.00;93091.97;2535486;23;20418;-82
2023/01/21 01:23:18;;;;;;;13.95;7.30;;;;;;;-10.91;100.00;93091.50;2546001;23;20405;-83
2023/01/21 01:24:18;;;;;;;22.50;10.25;;;;;;;-10.95;100.00;93093.13;2546389;23;20412;-83
2023/01/21 01:25:19;;;;;;;21.35;9.35;;;;;;;-11.10;100.00;93088.97;2558549;23;20401;-82
2023/01/21 01:26:21;;;;;;;18.00;8.43;;;;;;;-10.89;100.00;93094.56;2558711;23;20012;-82
2023/01/21 01:27:22;;;;;;;14.43;9.25;;;;;;;-10.84;100.00;93086.75;2546720;23;20001;-83
2023/01/21 01:28:23;;;;;;;12.50;8.18;;;;;;;-10.85;100.00;93089.59;2534607;23;20439;-83
2023/01/21 01:29:24;;;;;;;17.73;8.88;;;;;;;-10.87;100.00;93092.47;2537058;23;20034;-81
2023/01/21 01:30:25;;;;;;;17.10;9.35;;;;;;;-10.88;100.00;93090.19;2543056;23;20450;-81
2023/01/21 01:31:26;;;;;;;16.17;9.70;;;;;;;-10.90;100.00;93090.44;2555900;23;20027;-82
2023/01/21 01:32:27;;;;;;;13.93;9.40;;;;;;;-10.77;100.00;93089.72;2564694;23;20012;-81
2023/01/21 01:33:28;;;;;;;15.18;9.30;;;;;;;-10.80;100.00;93086.94;2560157;23;20045;-82
2023/01/21 01:34:29;;;;;;;12.95;8.75;;;;;;;-10.81;100.00;93093.91;2559948;23;20396;-82
2023/01/21 01:35:31;;;;;;;13.35;8.38;;;;;;;-10.68;100.00;93088.00;2547655;23;20029;-82
2023/01/21 01:36:32;;;;;;;15.27;8.85;;;;;;;-10.75;100.00;93084.28;2536095;23;20073;-82
2023/01/21 01:37:33;;;;;;;12.20;8.73;;;;;;;-10.82;100.00;93092.38;2534901;23;20792;-84
2023/01/21 01:38:34;;;;;;;14.07;8.52;;;;;;;-10.87;100.00;93094.28;2534747;23;20414;-81
2023/01/21 01:39:35;;;;;;;13.15;8.45;;;;;;;-10.85;100.00;93098.09;2534760;23;20081;-82
2023/01/21 01:40:36;;;;;;;13.98;7.90;;;;;;;-10.96;100.00;93094.94;2546641;23;20404;-83
2023/01/21 01:41:37;;;;;;;14.85;8.73;;;;;;;-10.98;100.00;93096.25;2534741;23;20029;-83
2023/01/21 01:42:38;;;;;;;12.75;8.27;;;;;;;-11.00;100.00;93093.19;2558567;23;20012;-83
2023/01/21 01:43:51;;;;;;;13.07;8.07;;;;;;;-11.01;100.00;93092.44;2546431;23;20009;-81
2023/01/21 01:44:58;;;;;;;12.02;8.25;;;;;;;-11.04;100.00;93094.81;2548631;23;20507;-83
2023/01/21 01:45:59;;;;;;;14.73;8.65;;;;;;;-11.04;100.00;93092.22;2548853;23;20401;-82
2023/01/21 01:47:02;;;;;;;11.65;7.75;;;;;;;-11.21;100.00;93093.50;2558380;23;20446;-81
2023/01/21 01:48:05;;;;;;;16.10;8.50;;;;;;;-11.21;100.00;93093.50;2559386;23;20408;-83
2023/01/21 01:49:18;;;;;;;14.15;8.05;;;;;;;-11.08;100.00;93101.59;2557983;23;20922;-83
2023/01/21 01:50:19;;;;;;;12.23;8.10;;;;;;;-11.09;100.00;93098.25;2551077;23;20415;-82
2023/01/21 01:51:28;;;;;;;15.77;8.40;;;;;;;-11.15;100.00;93104.50;2546342;23;20424;-82
2023/01/21 01:52:29;;;;;;;12.70;8.43;;;;;;;-11.14;100.00;93097.56;2549026;23;20389;-84
2023/01/21 01:53:31;;;;;;;12.80;8.60;;;;;;;-11.11;100.00;93095.16;2546228;23;20401;-83
2023/01/21 01:54:42;;;;;;;12.65;8.20;;;;;;;-11.13;100.00;93088.75;2546207;23;20532;-83
2023/01/21 01:55:45;;;;;;;14.13;7.60;;;;;;;-11.21;100.00;93098.66;2548297;23;20994;-83
2023/01/21 01:56:50;;;;;;;12.98;7.93;;;;;;;-11.21;100.00;93093.50;2534546;23;20450;-83
2023/01/21 01:57:53;;;;;;;14.07;8.32;;;;;;;-11.21;100.00;93100.47;2535587;23;20458;-83
2023/01/21 01:58:55;;;;;;;11.52;7.72;;;;;;;-11.19;100.00;93095.81;2546561;23;20397;-81
2023/01/21 01:59:56;;;;;;;11.60;7.78;;;;;;;-11.15;100.00;93096.78;2533781;23;20466;-83
2023/01/21 02:00:58;;;;;;;13.63;8.40;;;;;;;-11.17;100.00;93097.06;2534176;23;20765;-83
2023/01/21 02:02:05;;;;;;;13.55;8.52;;;;;;;-11.12;100.00;93096.22;2533920;23;20436;-84
2023/01/21 02:04:32;;;;;;;13.15;7.57;;;;;;;-11.18;100.00;93095.53;2553692;23;20405;-82
2023/01/21 02:05:34;;;;;;;13.05;8.20;;;;;;;-11.15;100.00;93096.78;2570688;23;20004;-83
2023/01/21 02:06:38;;;;;;;12.55;7.60;;;;;;;-11.14;100.00;93097.56;2546569;23;20409;-83
2023/01/21 02:07:41;;;;;;;12.95;8.07;;;;;;;-11.18;100.00;93087.78;2558912;23;20400;-82
2023/01/21 02:08:44;;;;;;;11.27;7.40;;;;;;;-11.21;100.00;93098.66;2546911;23;20412;-83
2023/01/21 02:09:45;;;;;;;13.50;7.22;;;;;;;-11.22;100.00;93089.41;2534647;23;20412;-82
2023/01/21 02:10:47;;;;;;;12.05;7.65;;;;;;;-11.23;100.00;93092.28;2546076;23;20532;-83
2023/01/21 02:11:48;;;;;;;12.75;8.02;;;;;;;-11.31;100.00;93103.97;2533815;23;20406;-82
2023/01/21 02:12:49;;;;;;;11.20;7.50;;;;;;;-11.23;100.00;93105.94;2546194;23;20412;-83
2023/01/21 02:13:55;;;;;;;10.25;7.30;;;;;;;-11.28;100.00;93108.59;2545698;23;20769;-82
2023/01/21 02:14:56;;;;;;;11.38;7.10;;;;;;;-11.24;100.00;93108.78;2535385;23;20489;-83
2023/01/21 02:31:20;;;;;;;;;;;;;;;-11.12;100.00;93095.44;2615068;22;20338;-82
2023/01/21 02:32:50;;;;;;;9.00;5.90;;;;;;;-11.06;100.00;93102.84;2586784;23;19951;-83
2023/01/21 02:34:15;;;;;;;13.43;6.32;;;;;;;-11.10;100.00;93098.53;2573824;23;20431;-83
2023/01/21 02:35:53;;;;;;;9.50;5.97;;;;;;;-11.32;100.00;93097.28;2571393;23;20020;-82
2023/01/21 02:37:35;;;;;;;8.32;5.57;;;;;;;-11.26;100.00;93101.31;2576706;23;20974;-82
2023/01/21 02:38:56;;;;;;;7.95;5.55;;;;;;;-11.27;100.00;93102.38;2544923;23;20409;-82
2023/01/21 02:40:16;;;;;;;8.93;5.20;;;;;;;-11.12;100.00;93098.03;2590909;22;20405;-82
2023/01/21 02:41:22;;;;;;;9.90;5.70;;;;;;;-10.99;100.00;93095.50;2591087;22;20435;-81
2023/01/21 02:42:43;;;;;;;10.35;5.43;;;;;;;-11.14;100.00;93106.06;2586687;23;20008;-82
2023/01/21 02:44:06;;;;;;;8.90;5.38;;;;;;;-11.17;100.00;93107.38;2582721;22;20469;-82
2023/01/21 02:45:17;;;;;;;9.10;5.35;;;;;;;-11.20;100.00;93099.44;2586466;23;20932;-82
2023/01/21 02:46:30;;;;;;;9.43;5.40;;;;;;;-11.25;100.00;93100.28;2565526;23;20408;-83
2023/01/21 02:48:15;;;;;;;10.82;6.65;;;;;;;-11.29;100.00;93101.88;2566494;23;20472;-82
2023/01/21 02:49:24;;;;;;;12.45;5.88;;;;;;;-11.30;100.00;93094.44;2575328;23;20534;-82
2023/01/21 02:50:48;;;;;;;8.97;5.83;;;;;;;-11.37;100.00;93102.50;2575738;23;20431;-82
2023/01/21 02:51:49;;;;;;;9.05;5.90;;;;;;;-11.35;100.00;93102.25;2596668;22;20414;-82
2023/01/21 02:52:58;;;;;;;9.50;6.60;;;;;;;-11.36;100.00;93096.31;2585956;23;20407;-82
2023/01/21 02:53:59;;;;;;;11.07;7.15;;;;;;;-11.34;100.00;93096.03;2575415;23;20004;-82
2023/01/21 02:55:01;;;;;;;10.63;6.88;;;;;;;-11.34;100.00;93109.69;2561771;23;20432;-83
2023/01/21 02:56:10;;;;;;;12.13;7.45;;;;;;;-11.32;100.00;93099.88;2574888;22;20079;-83
2023/01/21 02:57:15;;;;;;;10.38;6.60;;;;;;;-11.30;100.00;93108.09;2586369;23;20794;-83
2023/01/21 02:58:19;;;;;;;10.13;7.45;;;;;;;-11.31;100.00;93111.72;2563471;23;20404;-83
2023/01/21 02:59:20;;;;;;;10.30;6.85;;;;;;;-11.37;100.00;93105.09;2574194;23;20731;-83
2023/01/21 03:00:33;;;;;;;9.88;7.25;;;;;;;-11.33;100.00;93106.06;2586644;22;20406;-82
2023/01/21 03:01:50;;;;;;;10.73;7.47;;;;;;;-11.32;100.00;93106.84;2576468;23;20000;-82
2023/01/21 03:03:03;;;;;;;11.40;7.72;;;;;;;-11.39;100.00;93106.44;2577405;23;20796;-82
2023/01/21 03:04:03;;;;;;;12.20;7.05;;;;;;;-11.36;100.00;93106.63;2575750;23;20932;-82
2023/01/21 03:05:27;;;;;;;10.90;7.35;;;;;;;-11.33;100.00;93103.47;2573830;23;20448;-81
2023/01/21 03:06:54;;;;;;;12.13;7.03;;;;;;;-11.31;100.00;93108.38;2583234;22;20075;-81
2023/01/21 03:08:08;;;;;;;13.25;7.82;;;;;;;-11.30;100.00;93110.66;2591830;22;20584;-82
2023/01/21 03:09:21;;;;;;;12.63;7.68;;;;;;;-11.38;100.00;93111.28;2576062;23;20757;-82
2023/01/21 03:10:55;;;;;;;11.85;7.35;;;;;;;-11.46;100.00;93109.34;2566539;23;20408;-82
2023/01/21 03:12:07;;;;;;;10.38;7.00;;;;;;;-11.40;100.00;93105.66;2572441;23;20501;-82
2023/01/21 03:16:55;;;;;;;11.77;7.85;;;;;;;-11.44;100.00;93102.09;2565431;23;20408;-83
2023/01/21 03:17:46;;;;;;;11.93;6.75;;;;;;;-11.44;100.00;93109.84;2591418;22;20008;-82
2023/01/21 03:18:51;;;;;;;10.50;7.37;;;;;;;-11.43;100.00;93111.38;2573303;23;20399;-83
2023/01/21 03:20:03;;;;;;;11.88;7.57;;;;;;;-11.38;100.00;93106.13;2575518;22;20054;-84
2023/01/21 03:21:07;;;;;;;10.77;7.15;;;;;;;-11.35;100.00;93110.75;2588085;22;20394;-81
2023/01/21 03:22:13;;;;;;;10.38;7.03;;;;;;;-11.37;100.00;93105.09;2598576;22;20768;-82
2023/01/21 03:23:27;;;;;;;8.93;6.95;;;;;;;-11.34;100.00;93098.63;2574454;23;20415;-83
2023/01/21 03:24:28;;;;;;;9.30;6.55;;;;;;;-11.44;100.00;93113.19;2576024;23;20425;-82
2023/01/21 03:25:32;;;;;;;9.65;6.72;;;;;;;-11.37;100.00;93105.09;2573372;23;20391;-82
2023/01/21 03:26:40;;;;;;;8.57;6.72;;;;;;;-11.41;100.00;93106.72;2573886;23;20415;-82
2023/01/21 03:27:45;;;;;;;9.82;6.20;;;;;;;-11.44;100.00;93112.41;2574812;23;20399;-82
2023/01/21 03:28:52;;;;;;;9.02;6.13;;;;;;;-11.60;100.00;93103.34;2574932;22;20940;-82
2023/01/21 03:30:04;;;;;;;10.52;5.82;;;;;;;-11.57;100.00;93102.81;2583879;22;20706;-83
2023/01/21 03:31:11;;;;;;;11.60;6.65;;;;;;;-11.55;100.00;93109.19;2573229;23;20430;-82
2023/01/21 03:32:15;;;;;;;9.30;5.50;;;;;;;-11.49;100.00;93102.94;2571670;23;20783;-82
2023/01/21 03:33:19;;;;;;;8.52;6.47;;;;;;;-11.58;100.00;93093.53;2559794;23;20427;-82
2023/01/21 03:34:23;;;;;;;9.52;6.60;;;;;;;-11.58;100.00;93093.53;2571637;22;20789;-83
2023/01/21 03:35:33;;;;;;;7.88;5.65;;;;;;;-11.69;100.00;93109.13;2571414;23;20403;-83
2023/01/21 03:36:50;;;;;;;8.23;5.57;;;;;;;-11.71;100.00;93107.88;2572728;23;20438;-83
2023/01/21 03:38:08;;;;;;;7.75;5.63;;;;;;;-11.61;100.00;93106.97;2574766;23;20055;-82
2023/01/21 03:39:27;;;;;;;7.63;5.40;;;;;;;-11.55;100.00;93111.00;2565836;23;20420;-82
2023/01/21 03:40:39;;;;;;;6.90;4.83;;;;;;;-11.51;100.00;93104.25;2574716;23;20467;-83
2023/01/21 03:41:40;;;;;;;7.45;4.88;;;;;;;-11.26;100.00;93105.72;2575352;22;20511;-83
2023/01/21 03:42:42;;;;;;;7.63;5.15;;;;;;;-11.46;100.00;93106.75;2583349;23;20473;-83
2023/01/21 03:43:44;;;;;;;7.40;4.60;;;;;;;-11.54;100.00;93110.75;2559061;23;20412;-82
2023/01/21 03:44:45;;;;;;;8.07;5.63;;;;;;;-11.63;100.00;93102.13;2558693;23;20838;-82
2023/01/21 03:46:01;;;;;;;7.80;5.40;;;;;;;-11.86;100.00;93113.25;2583013;23;20509;-83
2023/01/21 03:47:28;;;;;;;8.52;4.43;;;;;;;-11.89;100.00;93106.06;2577127;22;20770;-82
2023/01/21 03:48:36;;;;;;;7.20;4.50;;;;;;;-11.84;100.00;93101.63;2575631;23;20805;-82
2023/01/21 03:49:51;;;;;;;8.73;5.22;;;;;;;-11.85;100.00;93110.41;2561133;23;20499;-83
2023/01/21 03:51:00;;;;;;;6.20;4.30;;;;;;;-11.90;100.00;93113.03;2586053;22;20858;-83
2023/01/21 03:52:03;;;;;;;6.80;4.32;;;;;;;-11.91;100.00;93113.31;2571988;23;20426;-82
2023/01/21 03:53:05;;;;;;;7.20;4.78;;;;;;;-11.98;100.00;93117.00;2559246;23;20570;-83
2023/01/21 03:54:06;;;;;;;9.00;4.95;;;;;;;-11.99;100.00;93122.41;2570689;23;20762;-83
2023/01/21 03:55:09;;;;;;;7.50;4.72;;;;;;;-11.96;100.00;93117.47;2558255;23;20416;-82
2023/01/21 03:56:10;;;;;;;9.25;4.40;;;;;;;-12.09;100.00;93117.38;2559246;23;20005;-82
2023/01/21 03:57:11;;;;;;;6.40;4.53;;;;;;;-12.12;100.00;93118.69;2582722;23;20955;-82
2023/01/21 03:58:12;;;;;;;7.20;4.68;;;;;;;-11.99;100.00;93122.41;2570805;22;20000;-82
2023/01/21 03:59:13;;;;;;;10.30;5.00;;;;;;;-12.03;100.00;93119.63;2583325;22;20004;-82
2023/01/21 04:00:14;;;;;;;8.07;4.45;;;;;;;-12.02;100.00;93120.41;2596250;22;20004;-82
2023/01/21 04:01:15;;;;;;;8.45;4.70;;;;;;;-11.99;100.00;93125.00;2583410;23;20028;-82
2023/01/21 04:02:18;;;;;;;4.97;4.10;;;;;;;-11.91;100.00;93126.97;2558635;23;20937;-82
2023/01/21 04:03:20;;;;;;;6.80;4.07;;;;;;;-11.97;100.00;93122.91;2568493;23;20313;-81
2023/01/21 04:04:21;;;;;;;9.00;4.20;;;;;;;-12.08;100.00;93127.41;2580327;23;20471;-82
2023/01/21 04:05:21;;;;;;;6.50;4.13;;;;;;;-12.08;100.00;93124.06;2579364;23;20407;-82
2023/01/21 04:06:23;;;;;;;5.53;3.75;;;;;;;-12.07;100.00;93128.97;2572390;23;20000;-82
2023/01/21 04:07:24;;;;;;;6.00;3.90;;;;;;;-12.10;100.00;93128.75;2572506;23;20009;-83
2023/01/21 04:08:25;;;;;;;6.10;3.60;;;;;;;-12.04;100.00;93128.41;2584937;22;20862;-82
2023/01/21 04:09:26;;;;;;;6.20;3.88;;;;;;;-12.06;100.00;93127.16;2584772;23;20011;-82
2023/01/21 04:10:27;;;;;;;5.37;3.90;;;;;;;-12.03;100.00;93124.00;2572117;23;20030;-82
2023/01/21 04:11:28;;;;;;;5.97;3.55;;;;;;;-12.02;100.00;93128.13;2572124;22;20000;-82
2023/01/21 04:12:29;;;;;;;6.77;4.53;;;;;;;-12.04;100.00;93130.22;2584388;23;20816;-82
2023/01/21 04:13:30;;;;;;;11.02;5.63;;;;;;;-12.17;100.00;93129.06;2559101;23;20040;-82
2023/01/21 04:14:31;;;;;;;9.73;6.30;;;;;;;-12.15;100.00;93137.28;2583874;23;20008;-84
2023/01/21 04:15:31;;;;;;;9.63;6.13;;;;;;;-12.18;100.00;93135.25;2571796;22;20008;-82
2023/01/21 04:16:32;;;;;;;10.75;6.55;;;;;;;-12.23;100.00;93138.66;2571228;23;20507;-82
2023/01/21 04:17:33;;;;;;;9.80;7.07;;;;;;;-12.24;100.00;93147.44;2571232;23;20063;-82
2023/01/21 04:18:35;;;;;;;9.85;6.72;;;;;;;-12.22;100.00;93136.84;2570917;23;20001;-81
2023/01/21 04:19:36;;;;;;;10.80;6.57;;;;;;;-12.08;100.00;93142.88;2559071;23;20112;-82
2023/01/21 04:20:37;;;;;;;10.73;6.50;;;;;;;-12.16;100.00;93148.63;2558223;23;20416;-82
2023/01/21 04:21:38;;;;;;;9.47;5.93;;;;;;;-12.12;100.00;93141.09;2558511;23;20017;-82
2023/01/21 04:22:39;;;;;;;7.95;5.90;;;;;;;-12.14;100.00;93138.81;2583235;23;20011;-82
2023/01/21 04:23:40;;;;;;;8.75;5.97;;;;;;;-12.09;100.00;93140.56;2570852;23;20010;-83
2023/01/21 04:24:41;;;;;;;9.53;5.77;;;;;;;-12.08;100.00;93136.94;2570403;22;20004;-82
2023/01/21 04:25:42;;;;;;;9.23;6.30;;;;;;;-12.09;100.00;93146.50;2570751;23;20414;-83
2023/01/21 04:26:43;;;;;;;9.15;5.95;;;;;;;-12.24;100.00;93147.44;2570996;23;20443;-83
2023/01/21 04:27:44;;;;;;;9.57;5.85;;;;;;;-12.19;100.00;93149.19;2558130;23;20432;-82
2023/01/21 04:28:45;;;;;;;9.15;5.70;;;;;;;-12.25;100.00;93148.44;2583166;23;20008;-82
2023/01/21 04:29:46;;;;;;;6.85;5.45;;;;;;;-12.22;100.00;93152.28;2583139;23;20411;-82
2023/01/21 04:30:47;;;;;;;7.88;5.20;;;;;;;-12.15;100.00;93141.69;2570416;23;20025;-82
2023/01/21 04:31:48;;;;;;;7.38;5.13;;;;;;;-12.16;100.00;93146.03;2570866;22;20005;-82
2023/01/21 04:32:49;;;;;;;5.60;4.78;;;;;;;-12.28;100.00;93151.59;2583174;22;20750;-82
2023/01/21 04:33:49;;;;;;;6.65;5.07;;;;;;;-12.27;100.00;93153.13;2570435;23;20032;-82
2023/01/21 04:34:50;;;;;;;7.03;4.97;;;;;;;-12.39;100.00;93150.13;2570640;23;20004;-83
2023/01/21 04:35:57;;;;;;;7.77;5.33;;;;;;;-12.31;100.00;93149.53;2570745;23;20079;-82
2023/01/21 04:36:58;;;;;;;6.57;4.90;;;;;;;-12.17;100.00;93152.25;2572158;23;20087;-82
2023/01/21 04:37:59;;;;;;;5.75;4.53;;;;;;;-12.31;100.00;93149.53;2570867;23;20916;-82
2023/01/21 04:39:00;;;;;;;7.30;4.63;;;;;;;-12.33;100.00;93156.03;2570877;23;20009;-82
2023/01/21 04:40:01;;;;;;;7.37;4.73;;;;;;;-12.29;100.00;93162.13;2559588;23;20015;-83
2023/01/21 04:41:02;;;;;;;6.77;4.70;;;;;;;-12.24;100.00;93162.13;2572940;22;20011;-82
2023/01/21 04:42:04;;;;;;;10.27;4.93;;;;;;;-12.30;100.00;93153.66;2584907;22;20403;-82
2023/01/21 04:43:05;;;;;;;7.93;5.70;;;;;;;-12.25;100.00;93163.13;2570826;23;20004;-82
2023/01/21 04:44:06;;;;;;;7.55;4.78;;;;;;;-12.25;100.00;93156.16;2557929;23;20472;-82
2023/01/21 04:45:07;;;;;;;7.73;5.33;;;;;;;-12.25;100.00;93158.75;2570819;23;20083;-82
2023/01/21 04:46:08;;;;;;;6.27;4.20;;;;;;;-12.23;100.00;93168.78;2570766;23;20546;-82
2023/01/21 04:47:09;;;;;;;6.25;4.53;;;;;;;-12.18;100.00;93163.59;2570863;23;20404;-83
2023/01/21 04:48:10;;;;;;;7.43;4.63;;;;;;;-12.14;100.00;93158.66;2558172;23;20076;-82
2023/01/21 04:49:11;;;;;;;7.60;4.67;;;;;;;-12.27;100.00;93170.38;2557855;23;20392;-83
2023/01/21 04:50:29;;;;;;;7.90;4.87;;;;;;;-12.29;100.00;93162.13;2570363;23;20007;-82
2023/01/21 04:51:30;;;;;;;9.63;5.15;;;;;;;-12.36;100.00;93167.63;2565196;23;20035;-82
2023/01/21 04:52:31;;;;;;;8.88;4.85;;;;;;;-12.28;100.00;93164.47;2557879;23;20443;-83
2023/01/21 04:53:32;;;;;;;7.60;4.73;;;;;;;-11.89;100.00;93170.47;2570389;23;20008;-82
2023/01/21 04:54:33;;;;;;;6.17;4.50;;;;;;;-11.82;100.00;93169.09;2558466;23;20005;-82
2023/01/21 04:55:34;;;;;;;8.97;4.50;;;;;;;-11.99;100.00;93166.22;2557839;23;20405;-83
2023/01/21 04:56:35;;;;;;;7.23;4.67;;;;;;;-12.11;100.00;93174.34;2558227;23;20452;-83
2023/01/21 04:57:36;;;;;;;7.83;5.10;;;;;;;-12.21;100.00;93167.47;2570234;23;20016;-83
2023/01/21 04:58:37;;;;;;;6.93;4.43;;;;;;;-12.18;100.00;93161.78;2582879;23;20407;-83
2023/01/21 04:59:38;;;;;;;5.78;4.15;;;;;;;-12.29;100.00;93165.50;2570410;23;20423;-84
2023/01/21 05:00:39;;;;;;;5.10;4.03;;;;;;;-12.25;100.00;93168.28;2558051;23;20092;-82
2023/01/21 05:01:40;;;;;;;6.70;4.28;;;;;;;-12.17;100.00;93167.69;2570199;23;20004;-83
2023/01/21 05:02:41;;;;;;;8.40;4.17;;;;;;;-12.24;100.00;93162.13;2557806;23;20352;-83
2023/01/21 05:03:42;;;;;;;6.17;3.97;;;;;;;-12.29;100.00;93170.66;2557762;23;20443;-82
2023/01/21 05:04:43;;;;;;;4.50;3.72;;;;;;;-12.31;100.00;93159.09;2558410;23;20009;-82
2023/01/21 05:05:44;;;;;;;6.60;4.40;;;;;;;-12.34;100.00;93165.53;2570644;23;20408;-83
2023/01/21 05:06:45;;;;;;;5.83;3.87;;;;;;;-12.41;100.00;93166.91;2582958;23;20012;-83
2023/01/21 05:07:45;;;;;;;4.83;3.77;;;;;;;-12.38;100.00;93164.53;2557954;23;20360;-83
2023/01/21 05:08:46;;;;;;;6.10;3.67;;;;;;;-12.40;100.00;93171.78;2557860;23;20036;-82
2023/01/21 05:09:47;;;;;;;5.33;4.07;;;;;;;-12.39;100.00;93160.44;2583041;22;20004;-82
2023/01/21 05:10:55;;;;;;;5.40;4.03;;;;;;;-12.45;100.00;93167.44;2570210;23;20005;-83
2023/01/21 05:11:55;;;;;;;4.93;3.70;;;;;;;-12.44;100.00;93171.56;2584241;22;20470;-83
2023/01/21 05:12:58;;;;;;;8.10;4.20;;;;;;;-12.44;100.00;93163.06;2582959;23;20422;-83
2023/01/21 05:13:59;;;;;;;5.03;3.53;;;;;;;-12.36;100.00;93167.63;2558433;23;20752;-82